Time;durP1;ratioP1;P1;durP2;ratioP2;P2;SDS_P1;SDS_P2;PMS_P1;PMS_P2;Temp;Humidity;BMP_temperature;BMP_pressure;BME280_temperature;BME280_humidity;BME280_pressure;Samples;Min_cycle;Max_cycle;Signal;HPM_P1;HPM_P2
2021/07/07 04:02:36;;;;;;;3.40;3.10;;;17.30;99.90;;;;;;4973482;23;20487;-61
2021/07/07 04:05:03;;;;;;;3.30;3.10;;;17.30;99.90;;;;;;4957428;29;20451;-61
2021/07/07 04:07:29;;;;;;;3.20;3.00;;;17.20;99.90;;;;;;4957089;28;20797;-59
2021/07/07 04:09:56;;;;;;;3.37;3.13;;;17.30;99.90;;;;;;4956913;29;20456;-61
2021/07/07 04:12:23;;;;;;;3.60;3.40;;;17.20;99.90;;;;;;4956819;29;20986;-60
2021/07/07 04:14:50;;;;;;;3.43;3.20;;;17.30;99.90;;;;;;4957268;29;20456;-60
2021/07/07 04:17:16;;;;;;;3.70;3.40;;;17.30;99.90;;;;;;4957106;28;20483;-60
2021/07/07 04:19:44;;;;;;;4.37;3.00;;;17.30;99.90;;;;;;4956744;29;20459;-60
2021/07/07 04:22:11;;;;;;;3.97;3.63;;;17.30;99.90;;;;;;4957721;29;20482;-60
2021/07/07 04:24:38;;;;;;;4.00;3.60;;;17.20;99.90;;;;;;4956912;29;20942;-60
2021/07/07 04:27:05;;;;;;;3.40;3.10;;;17.20;99.90;;;;;;4957117;29;20463;-60
2021/07/07 04:29:31;;;;;;;3.10;2.90;;;17.30;99.90;;;;;;4957430;29;20456;-60
2021/07/07 04:31:58;;;;;;;3.70;3.50;;;17.30;99.90;;;;;;4957510;29;20480;-60
2021/07/07 04:34:25;;;;;;;4.23;3.83;;;17.20;99.90;;;;;;4957615;29;20467;-60
2021/07/07 04:36:53;;;;;;;4.10;3.70;;;17.30;99.90;;;;;;4957253;29;20490;-60
2021/07/07 04:39:20;;;;;;;3.33;3.13;;;17.30;99.90;;;;;;4956840;29;20460;-60
2021/07/07 04:41:47;;;;;;;3.00;2.80;;;17.30;99.90;;;;;;4956659;28;20486;-60
2021/07/07 04:44:14;;;;;;;6.37;3.50;;;17.30;99.90;;;;;;4956572;29;20459;-62
2021/07/07 04:46:40;;;;;;;3.00;2.80;;;17.30;99.90;;;;;;4956834;29;20459;-60
2021/07/07 04:49:07;;;;;;;2.80;2.60;;;17.30;99.90;;;;;;4956911;29;20462;-59
2021/07/07 04:51:35;;;;;;;6.50;3.53;;;17.40;99.90;;;;;;4956768;29;20487;-60
2021/07/07 04:54:04;;;;;;;2.80;2.60;;;17.40;99.90;;;;;;4956655;29;20455;-60
2021/07/07 04:56:30;;;;;;;4.20;2.90;;;17.40;99.90;;;;;;4956560;29;20476;-60
2021/07/07 04:58:57;;;;;;;4.73;2.67;;;17.40;99.90;;;;;;4956680;29;20459;-60
2021/07/07 05:01:24;;;;;;;3.33;3.03;;;17.40;99.90;;;;;;4965047;29;20483;-59
2021/07/07 05:03:50;;;;;;;3.00;2.80;;;17.50;99.90;;;;;;4960434;29;20823;-61
2021/07/07 05:06:18;;;;;;;3.17;2.87;;;17.50;99.90;;;;;;4957018;29;20884;-61
2021/07/07 05:08:44;;;;;;;3.60;3.23;;;17.40;99.90;;;;;;4956710;29;20546;-61
2021/07/07 05:11:12;;;;;;;4.50;3.50;;;17.40;99.90;;;;;;4957508;29;21009;-60
2021/07/07 05:13:39;;;;;;;5.90;3.10;;;17.40;99.90;;;;;;4957197;29;20455;-61
2021/07/07 05:16:06;;;;;;;4.47;3.50;;;17.50;99.90;;;;;;4956604;29;20476;-60
2021/07/07 05:18:33;;;;;;;3.40;3.10;;;17.50;99.90;;;;;;4955723;29;20546;-60
2021/07/07 05:21:00;;;;;;;3.50;3.30;;;17.40;99.90;;;;;;4955897;29;20518;-60
2021/07/07 05:23:26;;;;;;;3.90;3.40;;;17.40;99.90;;;;;;4955896;29;20463;-60
2021/07/07 05:25:53;;;;;;;3.10;3.00;;;17.40;99.90;;;;;;4955657;29;20454;-60
2021/07/07 05:28:21;;;;;;;3.40;3.10;;;17.40;99.90;;;;;;4955778;29;20534;-60
2021/07/07 05:30:48;;;;;;;3.00;2.90;;;17.50;99.90;;;;;;4955364;28;20482;-61
2021/07/07 05:33:14;;;;;;;3.37;3.07;;;17.50;99.90;;;;;;4956744;29;20542;-60
2021/07/07 05:35:41;;;;;;;3.47;3.20;;;17.50;99.90;;;;;;4956092;29;20512;-61
2021/07/07 05:38:09;;;;;;;11.83;3.00;;;17.50;99.90;;;;;;4956299;29;20463;-60
2021/07/07 05:40:36;;;;;;;2.63;2.53;;;17.50;99.90;;;;;;4956194;29;21069;-60
2021/07/07 05:43:03;;;;;;;2.70;2.60;;;17.60;99.90;;;;;;4955850;29;20463;-61
2021/07/07 05:45:31;;;;;;;3.33;3.03;;;17.70;99.90;;;;;;4955855;29;20487;-61
2021/07/07 05:47:59;;;;;;;3.13;2.87;;;17.80;99.90;;;;;;4956089;29;20914;-60
2021/07/07 05:50:26;;;;;;;6.83;3.83;;;17.90;99.90;;;;;;4956639;29;20460;-60
2021/07/07 05:52:54;;;;;;;3.10;2.80;;;17.90;99.90;;;;;;4956964;29;20455;-61
2021/07/07 05:55:21;;;;;;;4.10;2.63;;;17.90;99.90;;;;;;4957257;29;20475;-60
2021/07/07 05:57:48;;;;;;;3.20;2.90;;;17.90;99.90;;;;;;4957060;29;20547;-60
2021/07/07 06:00:17;;;;;;;3.03;2.40;;;17.90;99.90;;;;;;4956973;29;20459;-60
2021/07/07 06:02:47;;;;;;;2.60;2.40;;;17.90;99.90;;;;;;4957299;29;20811;-61
2021/07/07 06:05:14;;;;;;;2.60;2.50;;;17.90;99.90;;;;;;4955680;29;20440;-61
2021/07/07 06:07:41;;;;;;;3.40;2.40;;;17.90;99.90;;;;;;4955549;29;20452;-61
2021/07/07 06:10:10;;;;;;;2.37;2.17;;;17.80;99.90;;;;;;4955510;29;20463;-61
2021/07/07 06:12:37;;;;;;;2.90;2.70;;;17.90;99.90;;;;;;4955482;29;20468;-62
2021/07/07 06:15:05;;;;;;;2.40;2.30;;;18.00;99.90;;;;;;4955334;29;20466;-60
2021/07/07 06:17:32;;;;;;;3.40;3.10;;;18.10;99.90;;;;;;4955350;29;20479;-60
2021/07/07 06:20:00;;;;;;;2.90;2.70;;;18.10;99.90;;;;;;4956054;29;20466;-60
2021/07/07 06:22:27;;;;;;;3.70;3.20;;;18.30;99.90;;;;;;4955752;29;20475;-61
2021/07/07 06:24:54;;;;;;;3.20;3.00;;;18.30;99.90;;;;;;4955556;29;20818;-60
2021/07/07 06:27:20;;;;;;;3.47;3.30;;;18.30;99.90;;;;;;4955302;29;20447;-59
2021/07/07 06:29:47;;;;;;;3.87;3.57;;;18.30;99.90;;;;;;4955118;29;20954;-61
2021/07/07 06:32:14;;;;;;;5.43;3.73;;;18.20;99.90;;;;;;4956292;29;20484;-60
2021/07/07 06:34:41;;;;;;;5.30;3.70;;;18.20;99.90;;;;;;4956110;29;20459;-60
2021/07/07 06:37:10;;;;;;;3.87;3.47;;;18.10;99.90;;;;;;4954812;29;21057;-60
2021/07/07 06:39:37;;;;;;;3.47;3.27;;;18.10;99.90;;;;;;4955043;29;21010;-60
2021/07/07 06:42:04;;;;;;;4.43;3.23;;;18.20;99.90;;;;;;4956853;28;21008;-60
2021/07/07 06:44:32;;;;;;;3.63;3.33;;;18.20;99.90;;;;;;4958859;29;20462;-59
2021/07/07 06:46:58;;;;;;;3.30;3.10;;;18.20;99.90;;;;;;4958706;29;20455;-61
2021/07/07 06:49:25;;;;;;;3.20;3.00;;;18.20;99.90;;;;;;4958454;29;20858;-60
2021/07/07 06:51:52;;;;;;;4.23;3.60;;;18.20;99.90;;;;;;4958852;29;20475;-60
2021/07/07 06:54:20;;;;;;;3.27;2.90;;;18.20;99.90;;;;;;4958617;29;20546;-61
2021/07/07 06:56:47;;;;;;;4.00;2.90;;;18.30;99.90;;;;;;4958547;29;20479;-60
2021/07/07 06:59:13;;;;;;;2.60;2.50;;;18.40;99.90;;;;;;4958508;29;20459;-60
2021/07/07 07:01:40;;;;;;;3.40;3.10;;;18.40;99.90;;;;;;4958099;29;20491;-59
2021/07/07 07:04:07;;;;;;;3.37;3.10;;;18.30;99.90;;;;;;4958453;29;20467;-60
2021/07/07 07:06:35;;;;;;;3.93;3.63;;;18.30;99.90;;;;;;4958975;29;20463;-61
2021/07/07 07:09:02;;;;;;;3.87;3.57;;;18.30;99.90;;;;;;4958783;29;20944;-61
2021/07/07 07:11:30;;;;;;;5.20;3.77;;;18.30;99.90;;;;;;4958148;29;20475;-60
2021/07/07 07:13:57;;;;;;;4.00;3.60;;;18.30;99.90;;;;;;4958497;29;20462;-61
2021/07/07 07:16:24;;;;;;;3.80;3.50;;;18.40;99.90;;;;;;4957900;29;20994;-61
2021/07/07 07:18:51;;;;;;;5.30;5.00;;;18.40;99.90;;;;;;4958744;29;20931;-60
2021/07/07 07:21:18;;;;;;;9.57;5.20;;;18.50;99.90;;;;;;4958740;29;20479;-61
2021/07/07 07:23:44;;;;;;;4.93;4.63;;;18.40;99.90;;;;;;4958283;29;20460;-61
2021/07/07 07:26:11;;;;;;;4.67;4.13;;;18.40;99.90;;;;;;4958342;29;20459;-61
2021/07/07 07:28:39;;;;;;;3.27;2.90;;;18.40;99.90;;;;;;4957787;29;20965;-60
2021/07/07 07:31:06;;;;;;;5.63;3.03;;;18.30;99.90;;;;;;4957955;29;20846;-61
2021/07/07 07:33:32;;;;;;;3.90;3.50;;;18.30;99.90;;;;;;4958112;29;20466;-60
2021/07/07 07:35:59;;;;;;;2.70;2.50;;;18.40;99.90;;;;;;4957634;29;20938;-61
2021/07/07 07:38:31;;;;;;;2.77;2.57;;;18.50;99.90;;;;;;4957884;29;20847;-61
2021/07/07 07:40:57;;;;;;;2.50;2.40;;;18.50;99.90;;;;;;4957639;29;21061;-60
2021/07/07 07:43:25;;;;;;;2.63;2.43;;;18.50;99.90;;;;;;4957779;29;20481;-60
2021/07/07 07:45:56;;;;;;;2.77;2.53;;;18.60;99.90;;;;;;4958210;29;21025;-61
2021/07/07 07:48:23;;;;;;;3.13;2.93;;;18.70;99.90;;;;;;4966732;29;20428;-61
2021/07/07 07:50:50;;;;;;;3.30;3.00;;;18.80;99.90;;;;;;4959878;29;20518;-61
2021/07/07 07:53:17;;;;;;;5.57;2.97;;;18.90;99.90;;;;;;4956824;28;20459;-61
2021/07/07 07:55:43;;;;;;;3.20;2.60;;;18.90;99.90;;;;;;4957595;29;20466;-60
2021/07/07 07:58:10;;;;;;;2.93;2.30;;;18.90;99.90;;;;;;4957227;29;20933;-60
2021/07/07 08:00:37;;;;;;;2.20;1.80;;;18.90;99.90;;;;;;4957322;29;20562;-61
2021/07/07 08:03:05;;;;;;;4.30;2.10;;;18.90;99.90;;;;;;4957478;29;20439;-61
2021/07/07 08:05:32;;;;;;;3.73;2.20;;;18.90;99.90;;;;;;4957137;29;20966;-61
2021/07/07 08:08:01;;;;;;;3.73;2.60;;;19.10;99.90;;;;;;4957490;29;20463;-61
2021/07/07 08:10:29;;;;;;;6.97;2.80;;;19.20;99.90;;;;;;4957280;29;20456;-61
2021/07/07 08:12:56;;;;;;;3.03;2.70;;;19.40;99.90;;;;;;4957814;29;20455;-61
2021/07/07 08:15:24;;;;;;;7.70;4.70;;;19.50;99.90;;;;;;4957067;29;20460;-61
2021/07/07 08:17:51;;;;;;;2.20;2.10;;;19.60;99.90;;;;;;4957096;29;20479;-61
2021/07/07 08:20:20;;;;;;;2.43;1.80;;;19.70;99.90;;;;;;4957233;29;20466;-60
2021/07/07 08:22:48;;;;;;;1.83;1.83;;;19.70;99.90;;;;;;4957155;29;20466;-60
2021/07/07 08:25:15;;;;;;;2.60;2.40;;;19.60;99.90;;;;;;4956657;29;20456;-61
2021/07/07 08:27:42;;;;;;;2.43;2.23;;;19.40;99.90;;;;;;4956828;29;20479;-61
2021/07/07 08:30:10;;;;;;;2.23;2.07;;;19.30;99.90;;;;;;4956908;29;20456;-62
2021/07/07 08:32:38;;;;;;;2.87;2.30;;;19.30;99.90;;;;;;4956986;28;20484;-60
2021/07/07 08:35:06;;;;;;;2.03;1.93;;;19.30;99.90;;;;;;4956975;29;20451;-61
2021/07/07 08:37:34;;;;;;;3.27;2.07;;;19.30;99.90;;;;;;4956547;29;20875;-60
2021/07/07 08:40:02;;;;;;;2.30;2.10;;;19.00;99.90;;;;;;4956887;29;20459;-61
2021/07/07 08:42:33;;;;;;;2.10;2.00;;;19.00;99.90;;;;;;4956613;29;20808;-61
2021/07/07 08:45:00;;;;;;;4.60;2.20;;;18.90;99.90;;;;;;4957559;29;20440;-60
2021/07/07 08:47:27;;;;;;;2.30;2.20;;;19.00;99.90;;;;;;4956468;29;20507;-61
2021/07/07 08:49:54;;;;;;;3.00;2.20;;;19.00;99.90;;;;;;4957363;29;20460;-61
2021/07/07 08:52:20;;;;;;;4.37;2.20;;;18.90;99.90;;;;;;4956595;29;20476;-60
2021/07/07 08:54:48;;;;;;;2.13;2.03;;;19.00;99.90;;;;;;4956429;29;20482;-60
2021/07/07 08:57:15;;;;;;;3.70;2.67;;;19.10;99.90;;;;;;4956487;29;20487;-61
2021/07/07 08:59:42;;;;;;;3.03;2.63;;;19.20;99.90;;;;;;4956482;29;20542;-61
2021/07/07 09:02:10;;;;;;;4.90;2.83;;;19.30;99.90;;;;;;4955951;29;20487;-61
2021/07/07 09:04:39;;;;;;;3.20;3.00;;;19.30;99.90;;;;;;4955903;28;20985;-62
2021/07/07 09:07:07;;;;;;;2.70;2.60;;;19.20;99.90;;;;;;4955855;29;20462;-61
2021/07/07 09:09:36;;;;;;;3.20;3.00;;;19.00;99.90;;;;;;4956250;29;20532;-61
2021/07/07 09:12:12;;;;;;;3.53;3.10;;;18.90;99.90;;;;;;4956053;29;20490;-61
2021/07/07 09:14:39;;;;;;;3.40;2.90;;;19.20;99.90;;;;;;4956492;29;20440;-60
2021/07/07 09:17:11;;;;;;;4.27;3.53;;;19.60;99.90;;;;;;4957676;29;20479;-62
2021/07/07 09:19:39;;;;;;;3.50;3.27;;;19.80;99.90;;;;;;4957357;29;20444;-62
2021/07/07 09:22:07;;;;;;;4.33;3.93;;;20.00;99.90;;;;;;4955995;29;20561;-61
2021/07/07 09:24:34;;;;;;;5.83;3.80;;;20.10;99.90;;;;;;4955610;29;20886;-62
2021/07/07 09:27:04;;;;;;;3.80;3.43;;;20.10;99.90;;;;;;4956015;29;20825;-61
2021/07/07 09:29:34;;;;;;;4.70;3.60;;;20.20;99.90;;;;;;4956150;29;20455;-60
2021/07/07 09:32:17;;;;;;;3.80;3.50;;;20.00;99.90;;;;;;4955959;29;20479;-61
2021/07/07 09:34:46;;;;;;;3.53;3.27;;;20.00;99.90;;;;;;4955962;29;20534;-61
2021/07/07 09:37:25;;;;;;;3.17;2.97;;;20.10;99.90;;;;;;4955936;29;20487;-60
2021/07/07 09:39:53;;;;;;;3.47;3.23;;;20.20;99.90;;;;;;4957085;29;20499;-60
2021/07/07 09:42:25;;;;;;;3.30;3.00;;;20.30;99.90;;;;;;4957362;29;20487;-61
2021/07/07 09:44:53;;;;;;;2.60;2.50;;;20.30;99.90;;;;;;4957714;29;20455;-61
2021/07/07 09:47:20;;;;;;;6.40;2.63;;;20.30;99.90;;;;;;4957137;29;20927;-62
2021/07/07 09:49:48;;;;;;;3.20;2.70;;;20.60;99.90;;;;;;4956072;29;20446;-62
2021/07/07 09:52:16;;;;;;;3.70;2.37;;;20.70;99.90;;;;;;4956012;29;20839;-60
2021/07/07 09:54:44;;;;;;;2.80;2.60;;;20.80;99.90;;;;;;4956095;29;20462;-61
2021/07/07 09:57:11;;;;;;;2.87;2.20;;;20.70;99.90;;;;;;4955488;29;20479;-61
2021/07/07 09:59:38;;;;;;;7.23;2.90;;;20.80;99.90;;;;;;4956016;29;20464;-61
2021/07/07 10:02:06;;;;;;;4.90;3.33;;;20.80;99.90;;;;;;4955379;28;20542;-60
2021/07/07 10:04:34;;;;;;;4.97;2.50;;;20.50;99.90;;;;;;4956385;29;20456;-61
2021/07/07 10:07:01;;;;;;;3.37;3.07;;;20.50;99.90;;;;;;4955972;28;20989;-60
2021/07/07 10:09:29;;;;;;;3.60;2.80;;;20.40;99.90;;;;;;4955605;29;20456;-60
2021/07/07 10:11:56;;;;;;;2.90;2.70;;;20.60;99.90;;;;;;4955221;29;20983;-61
2021/07/07 10:14:23;;;;;;;5.43;3.03;;;20.60;99.90;;;;;;4955571;29;20460;-60
2021/07/07 10:16:50;;;;;;;3.97;2.57;;;20.60;99.90;;;;;;4957260;28;20534;-63
2021/07/07 10:19:19;;;;;;;2.07;1.87;;;20.70;99.90;;;;;;4960634;29;20467;-61
2021/07/07 10:21:46;;;;;;;9.27;2.87;;;20.70;99.90;;;;;;4960031;29;20486;-61
2021/07/07 10:24:14;;;;;;;3.00;2.60;;;20.80;99.90;;;;;;4959364;28;20455;-61
2021/07/07 10:26:42;;;;;;;2.60;2.10;;;20.90;99.90;;;;;;4959274;29;20459;-61
2021/07/07 10:29:09;;;;;;;6.43;2.70;;;21.00;99.90;;;;;;4959156;29;20543;-61
2021/07/07 10:31:46;;;;;;;4.87;2.20;;;21.30;99.90;;;;;;4959173;29;20929;-61
2021/07/07 10:34:14;;;;;;;2.37;1.97;;;21.60;99.90;;;;;;4961563;29;20447;-61
2021/07/07 10:36:42;;;;;;;5.00;2.40;;;21.90;99.90;;;;;;4964591;29;20961;-61
2021/07/07 10:39:11;;;;;;;3.30;2.03;;;22.00;99.90;;;;;;4962246;29;20479;-61
2021/07/07 10:41:52;;;;;;;4.73;2.17;;;22.20;99.90;;;;;;4960177;28;20483;-61
2021/07/07 10:44:45;;;;;;;2.17;1.97;;;22.40;99.90;;;;;;4959238;28;20443;-60
2021/07/07 10:47:13;;;;;;;3.60;2.17;;;22.50;99.90;;;;;;4958874;28;20554;-61
2021/07/07 10:49:40;;;;;;;9.43;2.40;;;22.40;99.90;;;;;;4958961;28;20479;-61
2021/07/07 10:52:10;;;;;;;4.63;2.20;;;22.80;99.90;;;;;;4958654;29;20506;-61
2021/07/07 10:54:39;;;;;;;2.10;1.90;;;22.80;99.90;;;;;;4958697;29;20459;-62
2021/07/07 10:57:08;;;;;;;2.57;1.70;;;22.80;99.90;;;;;;4958566;29;20459;-61
2021/07/07 10:59:37;;;;;;;2.77;1.70;;;23.00;99.90;;;;;;4959430;29;20460;-61
2021/07/07 11:02:08;;;;;;;3.37;1.60;;;22.80;99.90;;;;;;4958296;29;20541;-61
2021/07/07 11:04:36;;;;;;;5.00;2.20;;;22.80;99.90;;;;;;4959358;29;20439;-61
2021/07/07 11:07:28;;;;;;;3.20;1.50;;;22.90;99.90;;;;;;4958562;29;20463;-61
2021/07/07 11:09:56;;;;;;;2.27;1.37;;;22.90;99.90;;;;;;4958464;28;20454;-61
2021/07/07 11:12:26;;;;;;;2.73;1.90;;;22.90;99.90;;;;;;4958441;29;20479;-61
2021/07/07 11:15:04;;;;;;;2.87;1.53;;;23.00;99.90;;;;;;4958635;29;20451;-61
2021/07/07 11:17:32;;;;;;;2.03;1.57;;;23.00;99.90;;;;;;4958049;29;20978;-61
2021/07/07 11:20:01;;;;;;;1.93;1.57;;;23.00;99.90;;;;;;4958113;29;20458;-61
2021/07/07 11:22:29;;;;;;;3.00;1.47;;;23.10;99.90;;;;;;4958215;29;20479;-61
2021/07/07 11:24:57;;;;;;;3.67;1.80;;;23.20;99.90;;;;;;4958239;29;20455;-61
2021/07/07 11:27:24;;;;;;;1.53;1.43;;;23.10;99.90;;;;;;4957516;28;20462;-61
2021/07/07 11:29:52;;;;;;;1.83;1.57;;;23.20;99.90;;;;;;4958026;29;20793;-62
2021/07/07 11:32:24;;;;;;;1.93;1.57;;;23.30;99.90;;;;;;4958363;29;20827;-62
2021/07/07 11:34:53;;;;;;;1.83;1.63;;;23.30;99.90;;;;;;4961142;29;20459;-60
2021/07/07 11:37:24;;;;;;;4.37;2.23;;;23.30;99.90;;;;;;4967695;28;20458;-61
2021/07/07 11:40:07;;;;;;;2.60;1.80;;;23.30;99.90;;;;;;4959214;29;20464;-60
2021/07/07 11:42:34;;;;;;;2.83;1.80;;;23.40;99.90;;;;;;4958174;29;20486;-61
2021/07/07 11:45:01;;;;;;;2.87;1.60;;;23.50;99.90;;;;;;4957912;29;20967;-62
2021/07/07 11:47:30;;;;;;;3.90;1.90;;;23.50;99.90;;;;;;4958553;29;20455;-61
2021/07/07 11:50:06;;;;;;;1.90;1.67;;;23.70;99.90;;;;;;4957872;29;20820;-61
2021/07/07 11:52:33;;;;;;;4.20;1.83;;;23.90;99.90;;;;;;4957760;28;20486;-61
2021/07/07 11:55:01;;;;;;;3.07;1.87;;;24.10;99.90;;;;;;4957862;29;20455;-60
2021/07/07 11:57:28;;;;;;;1.90;1.70;;;24.20;99.90;;;;;;4957969;29;20462;-61
2021/07/07 11:59:55;;;;;;;3.90;1.73;;;24.00;99.90;;;;;;4957683;29;20483;-61
2021/07/07 12:02:22;;;;;;;2.47;2.10;;;24.10;99.90;;;;;;4957575;28;20479;-60
2021/07/07 12:04:48;;;;;;;2.33;1.73;;;24.40;99.90;;;;;;4957454;29;20456;-62
2021/07/07 12:07:21;;;;;;;1.87;1.70;;;24.50;99.90;;;;;;4957307;29;20455;-61
2021/07/07 12:09:49;;;;;;;2.20;1.63;;;24.70;99.90;;;;;;4957233;29;20467;-60
2021/07/07 12:12:17;;;;;;;2.63;2.00;;;24.70;99.90;;;;;;4956994;29;20974;-60
2021/07/07 12:14:43;;;;;;;2.33;2.13;;;24.70;99.90;;;;;;4957910;29;20455;-62
2021/07/07 12:17:12;;;;;;;3.00;2.23;;;24.80;99.90;;;;;;4957424;29;20452;-60
2021/07/07 12:19:39;;;;;;;3.93;3.53;;;25.20;99.90;;;;;;4957177;29;20479;-62
2021/07/07 12:22:09;;;;;;;3.50;2.30;;;25.20;99.90;;;;;;4957111;29;20475;-61
2021/07/07 12:24:38;;;;;;;3.80;2.57;;;25.50;99.90;;;;;;4958030;28;20505;-61
2021/07/07 12:27:07;;;;;;;2.37;1.80;;;25.60;99.90;;;;;;4957109;29;20486;-61
2021/07/07 12:29:37;;;;;;;2.80;2.07;;;25.20;99.90;;;;;;4957233;29;20454;-61
2021/07/07 12:32:05;;;;;;;3.53;2.07;;;25.20;99.90;;;;;;4957215;29;20502;-61
2021/07/07 12:34:34;;;;;;;2.30;2.10;;;24.90;99.90;;;;;;4956827;29;20821;-61
2021/07/07 12:37:03;;;;;;;2.47;2.30;;;24.80;99.90;;;;;;4956642;29;20939;-61
2021/07/07 12:39:32;;;;;;;1.73;1.63;;;25.00;99.90;;;;;;4956375;28;20475;-61
2021/07/07 12:42:04;;;;;;;3.63;2.10;;;25.00;99.90;;;;;;4956961;29;20518;-61
2021/07/07 12:44:33;;;;;;;2.83;1.97;;;25.00;99.90;;;;;;4957013;29;20804;-61
2021/07/07 12:47:03;;;;;;;2.10;1.80;;;25.00;99.90;;;;;;4957085;29;20459;-61
2021/07/07 12:49:42;;;;;;;2.87;2.10;;;24.80;99.90;;;;;;4957310;29;20843;-61
2021/07/07 12:52:24;;;;;;;1.83;1.73;;;24.60;99.90;;;;;;4956747;29;20475;-60
2021/07/07 12:55:11;;;;;;;2.47;1.80;;;24.60;99.90;;;;;;4957539;29;20452;-60
2021/07/07 12:57:46;;;;;;;1.70;1.63;;;24.70;99.90;;;;;;4957126;29;20443;-61
2021/07/07 13:00:14;;;;;;;2.20;2.00;;;24.60;99.90;;;;;;4957085;29;20794;-62
2021/07/07 13:02:53;;;;;;;1.80;1.70;;;24.50;99.90;;;;;;4957468;28;20463;-62
2021/07/07 13:05:22;;;;;;;1.97;1.77;;;24.80;99.90;;;;;;4957204;29;20807;-61
2021/07/07 13:07:56;;;;;;;1.70;1.60;;;25.30;99.90;;;;;;4966596;29;20459;-60
2021/07/07 13:10:28;;;;;;;2.50;2.30;;;25.70;99.90;;;;;;4957129;29;20502;-61
2021/07/07 13:12:55;;;;;;;2.83;1.83;;;25.70;99.90;;;;;;4956569;29;20444;-61
2021/07/07 13:15:22;;;;;;;2.63;2.07;;;25.90;99.90;;;;;;4955937;29;20816;-62
2021/07/07 13:18:00;;;;;;;1.90;1.70;;;25.80;99.90;;;;;;4956231;29;20542;-61
2021/07/07 13:20:27;;;;;;;1.80;1.70;;;26.00;99.90;;;;;;4956453;29;20448;-61
2021/07/07 13:23:01;;;;;;;1.97;1.87;;;26.10;99.90;;;;;;4956395;29;20455;-61
2021/07/07 13:25:28;;;;;;;7.20;1.67;;;26.60;99.90;;;;;;4956747;28;20455;-62
2021/07/07 13:27:55;;;;;;;1.73;1.63;;;26.80;99.90;;;;;;4956574;29;20455;-62
2021/07/07 13:30:30;;;;;;;6.27;1.80;;;26.60;99.90;;;;;;4956305;29;20459;-62
2021/07/07 13:32:57;;;;;;;2.40;2.20;;;26.40;99.90;;;;;;4956391;29;20443;-62
2021/07/07 13:35:25;;;;;;;2.40;2.20;;;26.30;99.90;;;;;;4956321;29;20452;-61
2021/07/07 13:37:54;;;;;;;5.00;2.83;;;26.20;99.90;;;;;;4957190;29;20456;-61
2021/07/07 13:40:21;;;;;;;2.87;1.60;;;25.70;99.90;;;;;;4956277;29;20452;-61
2021/07/07 13:42:48;;;;;;;2.20;2.00;;;25.60;99.90;;;;;;4955987;29;20464;-62
2021/07/07 13:45:17;;;;;;;2.30;1.87;;;25.90;99.90;;;;;;4956167;28;20958;-62
2021/07/07 13:47:44;;;;;;;2.03;1.60;;;26.20;99.90;;;;;;4957479;29;20466;-61
2021/07/07 13:50:13;;;;;;;5.07;2.47;;;26.30;99.90;;;;;;4956552;29;20523;-62
2021/07/07 13:52:41;;;;;;;1.63;1.53;;;26.40;99.90;;;;;;4955420;29;21026;-61
2021/07/07 13:55:09;;;;;;;2.00;1.90;;;26.40;99.90;;;;;;4955625;29;20819;-61
2021/07/07 13:57:37;;;;;;;3.50;2.23;;;26.10;99.90;;;;;;4956067;28;20463;-61
2021/07/07 14:00:05;;;;;;;2.67;1.60;;;25.80;99.90;;;;;;4955922;29;20579;-61
2021/07/07 14:02:32;;;;;;;2.07;1.97;;;25.70;99.90;;;;;;4956447;29;20483;-61
2021/07/07 14:05:00;;;;;;;1.40;1.40;;;25.50;99.90;;;;;;4956625;29;21012;-60
2021/07/07 14:07:26;;;;;;;3.70;1.80;;;25.00;99.90;;;;;;4957101;29;20482;-61
2021/07/07 14:09:55;;;;;;;1.60;1.60;;;24.80;99.90;;;;;;4955935;29;20492;-63
2021/07/07 14:12:21;;;;;;;1.53;1.17;;;25.00;99.90;;;;;;4956071;29;20475;-62
2021/07/07 14:14:48;;;;;;;1.60;0.90;;;25.40;99.90;;;;;;4956015;29;20506;-62
2021/07/07 14:17:15;;;;;;;1.13;1.03;;;25.70;99.90;;;;;;4956150;29;20506;-62
2021/07/07 14:19:42;;;;;;;1.57;1.23;;;25.90;99.90;;;;;;4955420;29;20485;-62
2021/07/07 14:22:08;;;;;;;1.23;0.90;;;25.80;99.90;;;;;;4955500;29;20479;-62
2021/07/07 14:24:35;;;;;;;1.40;1.40;;;25.90;99.90;;;;;;4955471;29;20466;-61
2021/07/07 14:27:04;;;;;;;1.30;1.20;;;25.40;99.90;;;;;;4955391;29;20463;-61
2021/07/07 14:29:30;;;;;;;1.40;1.40;;;25.10;99.90;;;;;;4955778;29;20456;-60
2021/07/07 14:31:59;;;;;;;1.70;1.00;;;25.20;99.90;;;;;;4955745;29;20476;-61
2021/07/07 14:34:25;;;;;;;1.20;1.10;;;25.20;99.90;;;;;;4955692;29;20998;-62
2021/07/07 14:36:52;;;;;;;1.23;1.10;;;25.20;99.90;;;;;;4956397;29;20482;-61
2021/07/07 14:39:19;;;;;;;1.63;0.97;;;24.90;99.90;;;;;;4963706;29;20480;-60
2021/07/07 14:41:45;;;;;;;0.90;0.90;;;24.90;99.90;;;;;;4955496;29;20841;-61
2021/07/07 14:44:13;;;;;;;0.90;0.90;;;25.00;99.90;;;;;;4955697;29;20462;-61
2021/07/07 14:46:40;;;;;;;1.37;1.10;;;25.30;99.90;;;;;;4956576;29;20462;-62
2021/07/07 14:49:07;;;;;;;0.80;0.80;;;25.40;99.90;;;;;;4956595;29;20455;-61
2021/07/07 14:51:33;;;;;;;1.13;0.93;;;25.20;99.90;;;;;;4955748;29;20990;-62
2021/07/07 14:54:00;;;;;;;0.97;0.80;;;25.20;99.90;;;;;;4956055;29;20455;-61
2021/07/07 14:56:27;;;;;;;1.00;1.00;;;25.00;99.90;;;;;;4956445;29;20470;-61
2021/07/07 14:58:54;;;;;;;3.50;1.33;;;25.10;99.90;;;;;;4955971;29;20479;-62
2021/07/07 15:01:22;;;;;;;0.97;0.97;;;25.00;99.90;;;;;;4955794;29;20483;-61
2021/07/07 15:03:49;;;;;;;1.13;1.13;;;25.00;99.90;;;;;;4959237;28;20471;-61
2021/07/07 15:06:15;;;;;;;1.10;1.10;;;25.00;99.90;;;;;;4959934;29;20443;-61
2021/07/07 15:08:42;;;;;;;1.00;1.00;;;24.90;99.90;;;;;;4958780;29;20452;-61
2021/07/07 15:11:09;;;;;;;1.33;1.23;;;24.70;99.90;;;;;;4959127;29;20504;-63
2021/07/07 15:13:36;;;;;;;1.43;1.30;;;24.70;99.90;;;;;;4958886;29;20456;-60
2021/07/07 15:16:03;;;;;;;1.17;1.10;;;24.60;99.90;;;;;;4959277;29;20467;-61
2021/07/07 15:18:31;;;;;;;1.13;1.13;;;24.80;99.90;;;;;;4958672;29;20510;-60
2021/07/07 15:20:59;;;;;;;4.50;1.13;;;25.20;99.90;;;;;;4958330;29;20476;-62
2021/07/07 15:23:26;;;;;;;4.00;1.03;;;25.50;99.90;;;;;;4958435;29;20466;-61
2021/07/07 15:25:53;;;;;;;1.00;1.00;;;25.50;99.90;;;;;;4959184;29;20459;-61
2021/07/07 15:28:20;;;;;;;1.00;1.00;;;25.40;99.90;;;;;;4958330;29;20459;-61
2021/07/07 15:30:46;;;;;;;1.30;1.27;;;25.20;99.90;;;;;;4958655;29;20479;-62
2021/07/07 15:33:13;;;;;;;3.90;1.80;;;25.10;99.90;;;;;;4958262;29;20848;-61
2021/07/07 15:35:41;;;;;;;1.60;1.60;;;25.10;99.90;;;;;;4958385;29;20463;-61
2021/07/07 15:38:08;;;;;;;1.70;1.20;;;25.10;99.90;;;;;;4958618;29;20455;-61
2021/07/07 15:40:35;;;;;;;1.63;1.53;;;25.20;99.90;;;;;;4957998;29;21010;-62
2021/07/07 15:43:02;;;;;;;1.60;1.50;;;25.10;99.90;;;;;;4958398;29;20463;-62
2021/07/07 15:45:28;;;;;;;1.60;1.50;;;25.10;99.90;;;;;;4958568;29;20463;-61
2021/07/07 15:47:55;;;;;;;1.20;1.10;;;25.10;99.90;;;;;;4959127;29;20943;-61
2021/07/07 15:50:22;;;;;;;1.30;1.30;;;25.00;99.90;;;;;;4958425;29;20463;-62
2021/07/07 15:52:50;;;;;;;1.20;1.20;;;24.80;99.90;;;;;;4959809;29;20463;-61
2021/07/07 15:55:16;;;;;;;0.80;0.80;;;24.60;99.90;;;;;;4959384;29;20460;-61
2021/07/07 15:57:43;;;;;;;1.20;1.10;;;24.60;99.90;;;;;;4958403;29;20460;-61
2021/07/07 16:00:13;;;;;;;1.40;1.13;;;24.60;99.90;;;;;;4958054;29;20479;-62
2021/07/07 16:02:41;;;;;;;1.30;1.30;;;24.40;99.90;;;;;;4958139;28;20454;-62
2021/07/07 16:05:08;;;;;;;1.30;1.07;;;24.30;99.90;;;;;;4958050;29;20479;-61
2021/07/07 16:07:36;;;;;;;1.60;1.43;;;24.40;99.90;;;;;;4960717;28;20462;-62
2021/07/07 16:10:06;;;;;;;1.40;1.27;;;24.30;99.90;;;;;;4964799;29;20436;-63
2021/07/07 16:12:32;;;;;;;1.90;1.10;;;24.20;99.90;;;;;;4963474;29;20993;-62
2021/07/07 16:14:59;;;;;;;1.43;1.33;;;24.30;99.90;;;;;;4957522;28;20447;-62
2021/07/07 16:17:26;;;;;;;1.20;1.10;;;24.00;99.90;;;;;;4958169;29;20452;-62
2021/07/07 16:19:53;;;;;;;1.03;1.03;;;23.90;99.90;;;;;;4957976;29;20475;-63
2021/07/07 16:22:20;;;;;;;1.23;1.23;;;23.60;99.90;;;;;;4958921;29;20483;-61
2021/07/07 16:24:47;;;;;;;1.40;1.30;;;23.60;99.90;;;;;;4957657;29;20463;-60
2021/07/07 16:27:15;;;;;;;2.57;1.10;;;23.70;99.90;;;;;;4957214;29;20455;-62
2021/07/07 16:29:42;;;;;;;2.20;1.23;;;23.90;99.90;;;;;;4957106;29;20455;-61
2021/07/07 16:32:08;;;;;;;1.17;0.97;;;23.90;99.90;;;;;;4957052;29;20475;-61
2021/07/07 16:34:35;;;;;;;1.03;1.00;;;23.90;99.90;;;;;;4957374;29;20462;-61
2021/07/07 16:37:02;;;;;;;1.10;0.93;;;23.90;99.90;;;;;;4957854;29;20792;-61
2021/07/07 16:39:29;;;;;;;1.70;1.17;;;23.80;99.90;;;;;;4959100;29;20475;-63
2021/07/07 16:41:55;;;;;;;1.03;1.03;;;23.80;99.90;;;;;;4958205;29;20476;-61
2021/07/07 16:44:24;;;;;;;2.33;1.67;;;23.70;99.90;;;;;;4957668;29;20459;-61
2021/07/07 16:46:50;;;;;;;0.80;0.80;;;23.70;99.90;;;;;;4957075;29;20859;-62
2021/07/07 16:49:17;;;;;;;4.20;1.20;;;23.60;99.90;;;;;;4957681;29;20503;-61
2021/07/07 16:51:44;;;;;;;1.77;1.67;;;23.40;99.90;;;;;;4956789;29;20875;-61
2021/07/07 16:54:10;;;;;;;1.37;1.37;;;23.40;99.90;;;;;;4957753;29;20478;-62